Phillips, Maine
Current Conditions -  °F | °C
As of 8:15 AM on Sunday 23 Nov 2014 (Local Time) from KWVL Reporting Station
Clear Clear  
Wind Chill: 32°   Ceiling: Unl
Heat Index: 36°   Visibility: 10mi
Dew Point: 21°   Wind: 5mph
Humidity: 56%   Direction: 200°SSW
Pressure: 30"   Gusts: NA
Location:  44.82°N, 70.34°W
Report Text: KWVL 231315Z 20004KT 10SM CLR 02/M06 A3000 RMK AO1
Loading
Personal Weather Stations






























Interactive Weather Map New forecast layout! Learn more

10-Day Weather Forecast

Advertisements
Track Severe Weather on mobile